sensor_id;sensor_type;location;lat;lon;timestamp;temperature;humidity
20654;DHT22;21083;50.898;4.902;2024-01-30T00:00:28;10.50;99.90
20654;DHT22;21083;50.898;4.902;2024-01-30T00:02:55;10.50;99.90
20654;DHT22;21083;50.898;4.902;2024-01-30T00:05:22;10.50;99.90
20654;DHT22;21083;50.898;4.902;2024-01-30T00:07:50;10.50;99.90
20654;DHT22;21083;50.898;4.902;2024-01-30T00:10:17;10.60;99.90
20654;DHT22;21083;50.898;4.902;2024-01-30T00:12:45;10.50;99.90
20654;DHT22;21083;50.898;4.902;2024-01-30T00:15:12;10.50;99.90
20654;DHT22;21083;50.898;4.902;2024-01-30T00:17:39;10.40;99.90
20654;DHT22;21083;50.898;4.902;2024-01-30T00:20:07;10.30;99.90
20654;DHT22;21083;50.898;4.902;2024-01-30T00:22:35;10.30;99.90
20654;DHT22;21083;50.898;4.902;2024-01-30T00:25:04;10.40;99.90
20654;DHT22;21083;50.898;4.902;2024-01-30T00:27:31;10.30;99.90
20654;DHT22;21083;50.898;4.902;2024-01-30T00:29:58;10.40;99.90
20654;DHT22;21083;50.898;4.902;2024-01-30T00:32:25;10.30;99.90
20654;DHT22;21083;50.898;4.902;2024-01-30T00:34:52;10.30;99.90
20654;DHT22;21083;50.898;4.902;2024-01-30T00:37:19;10.40;99.90
20654;DHT22;21083;50.898;4.902;2024-01-30T00:39:46;10.40;99.90
20654;DHT22;21083;50.898;4.902;2024-01-30T00:42:14;10.40;99.90
20654;DHT22;21083;50.898;4.902;2024-01-30T00:44:41;10.50;99.90
20654;DHT22;21083;50.898;4.902;2024-01-30T00:47:09;10.40;99.90
20654;DHT22;21083;50.898;4.902;2024-01-30T00:49:36;10.40;99.90
20654;DHT22;21083;50.898;4.902;2024-01-30T00:52:04;10.60;99.90
20654;DHT22;21083;50.898;4.902;2024-01-30T00:54:31;10.60;99.90
20654;DHT22;21083;50.898;4.902;2024-01-30T00:56:58;10.50;99.90
20654;DHT22;21083;50.898;4.902;2024-01-30T00:59:26;10.50;99.90
20654;DHT22;21083;50.898;4.902;2024-01-30T01:01:53;10.40;99.90
20654;DHT22;21083;50.898;4.902;2024-01-30T01:04:20;10.40;99.90
20654;DHT22;21083;50.898;4.902;2024-01-30T01:06:48;10.50;99.90
20654;DHT22;21083;50.898;4.902;2024-01-30T01:09:15;10.50;99.90
20654;DHT22;21083;50.898;4.902;2024-01-30T01:11:42;10.50;99.90
20654;DHT22;21083;50.898;4.902;2024-01-30T01:14:09;10.50;99.90
20654;DHT22;21083;50.898;4.902;2024-01-30T01:16:37;10.50;99.90
20654;DHT22;21083;50.898;4.902;2024-01-30T01:19:04;10.50;99.90
20654;DHT22;21083;50.898;4.902;2024-01-30T01:21:31;10.60;99.90
20654;DHT22;21083;50.898;4.902;2024-01-30T01:23:58;10.60;99.90
20654;DHT22;21083;50.898;4.902;2024-01-30T01:26:25;10.60;99.90
20654;DHT22;21083;50.898;4.902;2024-01-30T01:28:52;10.60;99.90
20654;DHT22;21083;50.898;4.902;2024-01-30T01:31:19;10.60;99.90
20654;DHT22;21083;50.898;4.902;2024-01-30T01:33:51;10.60;99.90
20654;DHT22;21083;50.898;4.902;2024-01-30T01:36:18;10.60;99.90
20654;DHT22;21083;50.898;4.902;2024-01-30T01:38:45;10.60;99.90
20654;DHT22;21083;50.898;4.902;2024-01-30T01:41:12;10.60;99.90
20654;DHT22;21083;50.898;4.902;2024-01-30T01:43:39;10.70;99.90
20654;DHT22;21083;50.898;4.902;2024-01-30T01:46:07;10.70;99.90
20654;DHT22;21083;50.898;4.902;2024-01-30T01:48:35;10.70;99.90
20654;DHT22;21083;50.898;4.902;2024-01-30T01:51:04;10.60;99.90
20654;DHT22;21083;50.898;4.902;2024-01-30T01:53:31;10.60;99.90
20654;DHT22;21083;50.898;4.902;2024-01-30T01:55:59;10.60;99.90
20654;DHT22;21083;50.898;4.902;2024-01-30T01:58:27;10.60;99.90
20654;DHT22;21083;50.898;4.902;2024-01-30T02:00:56;10.50;99.90
20654;DHT22;21083;50.898;4.902;2024-01-30T02:03:24;10.50;99.90
20654;DHT22;21083;50.898;4.902;2024-01-30T02:05:52;10.40;99.90
20654;DHT22;21083;50.898;4.902;2024-01-30T02:08:20;10.40;99.90
20654;DHT22;21083;50.898;4.902;2024-01-30T02:10:47;10.40;99.90
20654;DHT22;21083;50.898;4.902;2024-01-30T02:13:15;10.40;99.90
20654;DHT22;21083;50.898;4.902;2024-01-30T02:15:42;10.40;99.90
20654;DHT22;21083;50.898;4.902;2024-01-30T02:18:09;10.40;99.90
20654;DHT22;21083;50.898;4.902;2024-01-30T02:20:37;10.30;99.90
20654;DHT22;21083;50.898;4.902;2024-01-30T02:23:07;10.30;99.90
20654;DHT22;21083;50.898;4.902;2024-01-30T02:25:39;10.30;99.90
20654;DHT22;21083;50.898;4.902;2024-01-30T02:28:09;10.30;99.90
20654;DHT22;21083;50.898;4.902;2024-01-30T02:30:37;10.30;99.90
20654;DHT22;21083;50.898;4.902;2024-01-30T02:33:04;10.30;99.90
20654;DHT22;21083;50.898;4.902;2024-01-30T02:35:31;10.30;99.90
20654;DHT22;21083;50.898;4.902;2024-01-30T02:37:59;10.40;99.90
20654;DHT22;21083;50.898;4.902;2024-01-30T02:40:27;10.40;99.90
20654;DHT22;21083;50.898;4.902;2024-01-30T02:42:54;10.40;99.90
20654;DHT22;21083;50.898;4.902;2024-01-30T02:45:22;10.40;99.90
20654;DHT22;21083;50.898;4.902;2024-01-30T02:47:49;10.40;99.90
20654;DHT22;21083;50.898;4.902;2024-01-30T02:50:16;10.30;99.90
20654;DHT22;21083;50.898;4.902;2024-01-30T02:52:43;10.40;99.90
20654;DHT22;21083;50.898;4.902;2024-01-30T02:55:10;10.50;99.90
20654;DHT22;21083;50.898;4.902;2024-01-30T02:57:39;10.40;99.90
20654;DHT22;21083;50.898;4.902;2024-01-30T03:00:07;10.40;99.90
20654;DHT22;21083;50.898;4.902;2024-01-30T03:02:35;10.40;99.90
20654;DHT22;21083;50.898;4.902;2024-01-30T03:05:02;10.50;99.90
20654;DHT22;21083;50.898;4.902;2024-01-30T03:07:30;10.40;99.90
20654;DHT22;21083;50.898;4.902;2024-01-30T03:09:57;10.40;99.90
20654;DHT22;21083;50.898;4.902;2024-01-30T03:12:24;10.40;99.90
20654;DHT22;21083;50.898;4.902;2024-01-30T03:14:52;10.30;99.90
20654;DHT22;21083;50.898;4.902;2024-01-30T03:17:19;10.40;99.90
20654;DHT22;21083;50.898;4.902;2024-01-30T03:19:47;10.40;99.90
20654;DHT22;21083;50.898;4.902;2024-01-30T03:22:14;10.50;99.90
20654;DHT22;21083;50.898;4.902;2024-01-30T03:24:41;10.50;99.90
20654;DHT22;21083;50.898;4.902;2024-01-30T03:27:08;10.50;99.90
20654;DHT22;21083;50.898;4.902;2024-01-30T03:29:35;10.50;99.90
20654;DHT22;21083;50.898;4.902;2024-01-30T03:32:04;10.50;99.90
20654;DHT22;21083;50.898;4.902;2024-01-30T03:34:30;10.50;99.90
20654;DHT22;21083;50.898;4.902;2024-01-30T03:36:57;10.60;99.90
20654;DHT22;21083;50.898;4.902;2024-01-30T03:39:24;10.60;99.90
20654;DHT22;21083;50.898;4.902;2024-01-30T03:41:51;10.70;99.90
20654;DHT22;21083;50.898;4.902;2024-01-30T03:44:18;10.80;99.90
20654;DHT22;21083;50.898;4.902;2024-01-30T03:46:46;10.70;99.90
20654;DHT22;21083;50.898;4.902;2024-01-30T03:49:14;10.60;99.90
20654;DHT22;21083;50.898;4.902;2024-01-30T03:51:41;10.80;99.90
20654;DHT22;21083;50.898;4.902;2024-01-30T03:54:08;10.70;99.90
20654;DHT22;21083;50.898;4.902;2024-01-30T03:56:35;10.80;99.90
20654;DHT22;21083;50.898;4.902;2024-01-30T03:59:02;10.70;99.90
20654;DHT22;21083;50.898;4.902;2024-01-30T04:01:29;10.80;99.90
20654;DHT22;21083;50.898;4.902;2024-01-30T04:03:57;10.80;99.90
20654;DHT22;21083;50.898;4.902;2024-01-30T04:06:25;10.90;99.90
20654;DHT22;21083;50.898;4.902;2024-01-30T04:08:52;11.00;99.90
20654;DHT22;21083;50.898;4.902;2024-01-30T04:11:19;11.00;99.90
20654;DHT22;21083;50.898;4.902;2024-01-30T04:13:47;11.00;99.90
20654;DHT22;21083;50.898;4.902;2024-01-30T04:16:20;10.90;99.90
20654;DHT22;21083;50.898;4.902;2024-01-30T04:18:47;11.10;99.90
20654;DHT22;21083;50.898;4.902;2024-01-30T04:21:14;11.30;99.90
20654;DHT22;21083;50.898;4.902;2024-01-30T04:23:43;11.30;99.90
20654;DHT22;21083;50.898;4.902;2024-01-30T04:26:10;11.30;99.90
20654;DHT22;21083;50.898;4.902;2024-01-30T04:28:37;11.20;99.90
20654;DHT22;21083;50.898;4.902;2024-01-30T04:31:04;11.20;99.90
20654;DHT22;21083;50.898;4.902;2024-01-30T04:33:31;11.30;99.90
20654;DHT22;21083;50.898;4.902;2024-01-30T04:35:59;11.30;99.90
20654;DHT22;21083;50.898;4.902;2024-01-30T04:38:27;11.40;99.90
20654;DHT22;21083;50.898;4.902;2024-01-30T04:40:56;11.30;99.90
20654;DHT22;21083;50.898;4.902;2024-01-30T04:43:24;11.30;99.90
20654;DHT22;21083;50.898;4.902;2024-01-30T04:45:51;11.30;99.90
20654;DHT22;21083;50.898;4.902;2024-01-30T04:48:19;11.40;99.90
20654;DHT22;21083;50.898;4.902;2024-01-30T04:50:46;11.30;99.90
20654;DHT22;21083;50.898;4.902;2024-01-30T04:53:13;11.20;99.90
20654;DHT22;21083;50.898;4.902;2024-01-30T04:55:40;11.30;99.90
20654;DHT22;21083;50.898;4.902;2024-01-30T04:58:08;11.30;99.90
20654;DHT22;21083;50.898;4.902;2024-01-30T05:00:35;11.20;99.90
20654;DHT22;21083;50.898;4.902;2024-01-30T05:03:02;11.10;99.90
20654;DHT22;21083;50.898;4.902;2024-01-30T05:05:29;11.20;99.90
20654;DHT22;21083;50.898;4.902;2024-01-30T05:07:57;11.30;99.90
20654;DHT22;21083;50.898;4.902;2024-01-30T05:10:24;11.20;99.90
20654;DHT22;21083;50.898;4.902;2024-01-30T05:12:51;11.20;99.90
20654;DHT22;21083;50.898;4.902;2024-01-30T05:15:19;11.30;99.90
20654;DHT22;21083;50.898;4.902;2024-01-30T05:17:46;11.20;99.90
20654;DHT22;21083;50.898;4.902;2024-01-30T05:20:13;11.20;99.90
20654;DHT22;21083;50.898;4.902;2024-01-30T05:22:40;11.10;99.90
20654;DHT22;21083;50.898;4.902;2024-01-30T05:25:10;11.20;99.90
20654;DHT22;21083;50.898;4.902;2024-01-30T05:27:38;11.30;99.90
20654;DHT22;21083;50.898;4.902;2024-01-30T05:30:06;11.20;99.90
20654;DHT22;21083;50.898;4.902;2024-01-30T05:32:35;11.30;99.90
20654;DHT22;21083;50.898;4.902;2024-01-30T05:35:02;11.30;99.90
20654;DHT22;21083;50.898;4.902;2024-01-30T05:37:29;11.30;99.90
20654;DHT22;21083;50.898;4.902;2024-01-30T05:39:58;11.30;99.90
20654;DHT22;21083;50.898;4.902;2024-01-30T05:42:26;11.30;99.90
20654;DHT22;21083;50.898;4.902;2024-01-30T05:44:53;11.40;99.90
20654;DHT22;21083;50.898;4.902;2024-01-30T05:47:20;11.40;99.90
20654;DHT22;21083;50.898;4.902;2024-01-30T05:49:49;11.40;99.90
20654;DHT22;21083;50.898;4.902;2024-01-30T05:52:16;11.10;99.90
20654;DHT22;21083;50.898;4.902;2024-01-30T05:54:44;11.20;99.90
20654;DHT22;21083;50.898;4.902;2024-01-30T05:57:11;11.30;99.90
20654;DHT22;21083;50.898;4.902;2024-01-30T05:59:37;11.30;99.90
20654;DHT22;21083;50.898;4.902;2024-01-30T06:02:04;11.30;99.90
20654;DHT22;21083;50.898;4.902;2024-01-30T06:04:31;11.20;99.90
20654;DHT22;21083;50.898;4.902;2024-01-30T06:07:00;11.20;99.90
20654;DHT22;21083;50.898;4.902;2024-01-30T06:09:27;11.30;99.90
20654;DHT22;21083;50.898;4.902;2024-01-30T06:11:55;11.30;99.90
20654;DHT22;21083;50.898;4.902;2024-01-30T06:14:22;11.20;99.90
20654;DHT22;21083;50.898;4.902;2024-01-30T06:16:49;11.20;99.90
20654;DHT22;21083;50.898;4.902;2024-01-30T06:19:16;11.20;99.90
20654;DHT22;21083;50.898;4.902;2024-01-30T06:21:43;11.30;99.90
20654;DHT22;21083;50.898;4.902;2024-01-30T06:24:12;11.20;99.90
20654;DHT22;21083;50.898;4.902;2024-01-30T06:26:39;11.30;99.90
20654;DHT22;21083;50.898;4.902;2024-01-30T06:29:07;11.40;99.90
20654;DHT22;21083;50.898;4.902;2024-01-30T06:31:40;11.40;99.90
20654;DHT22;21083;50.898;4.902;2024-01-30T06:34:07;11.30;99.90
20654;DHT22;21083;50.898;4.902;2024-01-30T06:36:34;11.30;99.90
20654;DHT22;21083;50.898;4.902;2024-01-30T06:39:01;11.30;99.90
20654;DHT22;21083;50.898;4.902;2024-01-30T06:41:30;11.20;99.90
20654;DHT22;21083;50.898;4.902;2024-01-30T06:43:57;11.20;99.90
20654;DHT22;21083;50.898;4.902;2024-01-30T06:46:24;11.30;99.90
20654;DHT22;21083;50.898;4.902;2024-01-30T06:48:51;11.20;99.90
20654;DHT22;21083;50.898;4.902;2024-01-30T06:51:20;11.20;99.90
20654;DHT22;21083;50.898;4.902;2024-01-30T06:53:47;11.20;99.90
20654;DHT22;21083;50.898;4.902;2024-01-30T06:56:14;11.30;99.90
20654;DHT22;21083;50.898;4.902;2024-01-30T06:58:43;11.30;99.90
20654;DHT22;21083;50.898;4.902;2024-01-30T07:01:10;11.30;99.90
20654;DHT22;21083;50.898;4.902;2024-01-30T07:03:37;11.30;99.90
20654;DHT22;21083;50.898;4.902;2024-01-30T07:06:05;11.30;99.90
20654;DHT22;21083;50.898;4.902;2024-01-30T07:08:32;11.20;99.90
20654;DHT22;21083;50.898;4.902;2024-01-30T07:10:59;11.30;99.90
20654;DHT22;21083;50.898;4.902;2024-01-30T07:13:27;11.40;99.90
20654;DHT22;21083;50.898;4.902;2024-01-30T07:15:56;11.30;99.90
20654;DHT22;21083;50.898;4.902;2024-01-30T07:18:23;11.30;99.90
20654;DHT22;21083;50.898;4.902;2024-01-30T07:20:50;11.30;99.90
20654;DHT22;21083;50.898;4.902;2024-01-30T07:23:17;11.20;99.90
20654;DHT22;21083;50.898;4.902;2024-01-30T07:25:44;11.30;99.90
20654;DHT22;21083;50.898;4.902;2024-01-30T07:28:11;11.40;99.90
20654;DHT22;21083;50.898;4.902;2024-01-30T07:30:39;11.30;99.90
20654;DHT22;21083;50.898;4.902;2024-01-30T07:33:07;11.20;99.90
20654;DHT22;21083;50.898;4.902;2024-01-30T07:35:36;11.20;99.90
20654;DHT22;21083;50.898;4.902;2024-01-30T07:38:03;11.20;99.90
20654;DHT22;21083;50.898;4.902;2024-01-30T07:40:30;11.20;99.90
20654;DHT22;21083;50.898;4.902;2024-01-30T07:42:59;11.20;99.90
20654;DHT22;21083;50.898;4.902;2024-01-30T07:45:26;11.20;99.90
20654;DHT22;21083;50.898;4.902;2024-01-30T07:47:58;11.30;99.90
20654;DHT22;21083;50.898;4.902;2024-01-30T07:50:27;11.30;99.90
20654;DHT22;21083;50.898;4.902;2024-01-30T07:52:55;11.40;99.90
20654;DHT22;21083;50.898;4.902;2024-01-30T07:55:22;11.40;99.90
20654;DHT22;21083;50.898;4.902;2024-01-30T07:57:54;11.30;99.90
20654;DHT22;21083;50.898;4.902;2024-01-30T08:00:22;11.30;99.90
20654;DHT22;21083;50.898;4.902;2024-01-30T08:02:49;11.20;99.90
20654;DHT22;21083;50.898;4.902;2024-01-30T08:05:16;11.20;99.90
20654;DHT22;21083;50.898;4.902;2024-01-30T08:07:45;11.30;99.90
20654;DHT22;21083;50.898;4.902;2024-01-30T08:10:12;11.30;99.90
20654;DHT22;21083;50.898;4.902;2024-01-30T08:12:39;11.40;99.90
20654;DHT22;21083;50.898;4.902;2024-01-30T08:15:07;11.60;99.90
20654;DHT22;21083;50.898;4.902;2024-01-30T08:17:34;11.50;99.90
20654;DHT22;21083;50.898;4.902;2024-01-30T08:20:01;11.60;99.90
20654;DHT22;21083;50.898;4.902;2024-01-30T08:22:30;11.50;99.90
20654;DHT22;21083;50.898;4.902;2024-01-30T08:24:58;11.50;99.90
20654;DHT22;21083;50.898;4.902;2024-01-30T08:27:25;11.50;99.90
20654;DHT22;21083;50.898;4.902;2024-01-30T08:29:52;11.50;99.90
20654;DHT22;21083;50.898;4.902;2024-01-30T08:32:19;11.50;99.90
20654;DHT22;21083;50.898;4.902;2024-01-30T08:34:46;11.50;99.90
20654;DHT22;21083;50.898;4.902;2024-01-30T08:37:14;11.60;99.90
20654;DHT22;21083;50.898;4.902;2024-01-30T08:39:42;11.60;99.90
20654;DHT22;21083;50.898;4.902;2024-01-30T08:42:11;11.70;99.90
20654;DHT22;21083;50.898;4.902;2024-01-30T08:44:38;11.80;99.90
20654;DHT22;21083;50.898;4.902;2024-01-30T08:47:05;11.80;99.90
20654;DHT22;21083;50.898;4.902;2024-01-30T08:49:32;11.80;99.90
20654;DHT22;21083;50.898;4.902;2024-01-30T08:51:59;11.70;99.90
20654;DHT22;21083;50.898;4.902;2024-01-30T08:54:26;11.80;99.90
20654;DHT22;21083;50.898;4.902;2024-01-30T08:56:53;11.70;99.90
20654;DHT22;21083;50.898;4.902;2024-01-30T08:59:23;11.70;99.90
20654;DHT22;21083;50.898;4.902;2024-01-30T09:01:50;11.80;99.90
20654;DHT22;21083;50.898;4.902;2024-01-30T09:04:20;11.80;99.90
20654;DHT22;21083;50.898;4.902;2024-01-30T09:06:48;11.90;99.90
20654;DHT22;21083;50.898;4.902;2024-01-30T09:09:15;11.90;99.90
20654;DHT22;21083;50.898;4.902;2024-01-30T09:11:43;11.80;99.90
20654;DHT22;21083;50.898;4.902;2024-01-30T09:14:10;11.80;99.90
20654;DHT22;21083;50.898;4.902;2024-01-30T09:16:39;11.70;99.90
20654;DHT22;21083;50.898;4.902;2024-01-30T09:19:05;11.80;99.90
20654;DHT22;21083;50.898;4.902;2024-01-30T09:21:33;11.80;99.90
20654;DHT22;21083;50.898;4.902;2024-01-30T09:24:02;11.70;99.90
20654;DHT22;21083;50.898;4.902;2024-01-30T09:26:29;11.70;99.90
20654;DHT22;21083;50.898;4.902;2024-01-30T09:28:57;11.70;99.90
20654;DHT22;21083;50.898;4.902;2024-01-30T09:31:24;11.80;99.90
20654;DHT22;21083;50.898;4.902;2024-01-30T09:33:52;12.00;99.90
20654;DHT22;21083;50.898;4.902;2024-01-30T09:36:20;12.00;99.90
20654;DHT22;21083;50.898;4.902;2024-01-30T09:38:47;12.10;99.90
20654;DHT22;21083;50.898;4.902;2024-01-30T09:41:14;12.10;99.90
20654;DHT22;21083;50.898;4.902;2024-01-30T09:43:46;12.00;99.90
20654;DHT22;21083;50.898;4.902;2024-01-30T09:46:16;12.00;99.90
20654;DHT22;21083;50.898;4.902;2024-01-30T09:48:46;12.00;99.90
20654;DHT22;21083;50.898;4.902;2024-01-30T09:51:15;12.00;99.90
20654;DHT22;21083;50.898;4.902;2024-01-30T09:53:42;12.00;99.90
20654;DHT22;21083;50.898;4.902;2024-01-30T09:56:11;12.00;99.90
20654;DHT22;21083;50.898;4.902;2024-01-30T09:58:39;12.00;99.90
20654;DHT22;21083;50.898;4.902;2024-01-30T10:01:06;11.90;99.90
20654;DHT22;21083;50.898;4.902;2024-01-30T10:03:33;11.80;99.90
20654;DHT22;21083;50.898;4.902;2024-01-30T10:06:01;11.90;99.90
20654;DHT22;21083;50.898;4.902;2024-01-30T10:08:30;11.80;99.90
20654;DHT22;21083;50.898;4.902;2024-01-30T10:10:57;11.80;99.90
20654;DHT22;21083;50.898;4.902;2024-01-30T10:13:24;12.00;99.90
20654;DHT22;21083;50.898;4.902;2024-01-30T10:15:53;12.10;99.90
20654;DHT22;21083;50.898;4.902;2024-01-30T10:18:22;12.10;99.90
20654;DHT22;21083;50.898;4.902;2024-01-30T10:20:49;12.10;99.90
20654;DHT22;21083;50.898;4.902;2024-01-30T10:23:16;12.10;99.90
20654;DHT22;21083;50.898;4.902;2024-01-30T10:25:46;12.20;99.90
20654;DHT22;21083;50.898;4.902;2024-01-30T10:28:13;12.10;99.90
20654;DHT22;21083;50.898;4.902;2024-01-30T10:30:40;12.10;99.90
20654;DHT22;21083;50.898;4.902;2024-01-30T10:33:08;12.10;99.90
20654;DHT22;21083;50.898;4.902;2024-01-30T10:35:35;12.20;99.90
20654;DHT22;21083;50.898;4.902;2024-01-30T10:38:02;12.10;99.90
20654;DHT22;21083;50.898;4.902;2024-01-30T10:40:31;12.00;99.90
20654;DHT22;21083;50.898;4.902;2024-01-30T10:43:02;12.00;99.90
20654;DHT22;21083;50.898;4.902;2024-01-30T10:45:30;12.00;99.90
20654;DHT22;21083;50.898;4.902;2024-01-30T10:47:59;11.90;99.90
20654;DHT22;21083;50.898;4.902;2024-01-30T10:50:31;11.90;99.90
20654;DHT22;21083;50.898;4.902;2024-01-30T10:52:59;11.90;99.90
20654;DHT22;21083;50.898;4.902;2024-01-30T10:55:28;11.90;99.90
20654;DHT22;21083;50.898;4.902;2024-01-30T10:57:56;11.90;99.90
20654;DHT22;21083;50.898;4.902;2024-01-30T11:00:26;11.90;99.90
20654;DHT22;21083;50.898;4.902;2024-01-30T11:02:54;12.00;99.90
20654;DHT22;21083;50.898;4.902;2024-01-30T11:05:24;12.00;99.90
20654;DHT22;21083;50.898;4.902;2024-01-30T11:07:52;12.00;99.90
20654;DHT22;21083;50.898;4.902;2024-01-30T11:10:19;12.00;99.90
20654;DHT22;21083;50.898;4.902;2024-01-30T11:12:47;12.00;99.90
20654;DHT22;21083;50.898;4.902;2024-01-30T11:15:16;12.00;99.90
20654;DHT22;21083;50.898;4.902;2024-01-30T11:17:50;12.20;99.90
20654;DHT22;21083;50.898;4.902;2024-01-30T11:20:20;12.10;99.90
20654;DHT22;21083;50.898;4.902;2024-01-30T11:22:51;12.20;99.90
20654;DHT22;21083;50.898;4.902;2024-01-30T11:25:21;12.20;99.90
20654;DHT22;21083;50.898;4.902;2024-01-30T11:27:50;12.10;99.90
20654;DHT22;21083;50.898;4.902;2024-01-30T11:30:24;12.10;99.90
20654;DHT22;21083;50.898;4.902;2024-01-30T11:33:00;12.10;99.90
20654;DHT22;21083;50.898;4.902;2024-01-30T11:35:32;12.10;99.90
20654;DHT22;21083;50.898;4.902;2024-01-30T11:38:00;12.00;99.90
20654;DHT22;21083;50.898;4.902;2024-01-30T11:40:28;12.00;99.90
20654;DHT22;21083;50.898;4.902;2024-01-30T11:42:55;12.00;99.90
20654;DHT22;21083;50.898;4.902;2024-01-30T11:45:23;12.00;99.90
20654;DHT22;21083;50.898;4.902;2024-01-30T11:47:50;12.00;99.90
20654;DHT22;21083;50.898;4.902;2024-01-30T11:50:19;11.90;99.90
20654;DHT22;21083;50.898;4.902;2024-01-30T11:52:46;11.90;99.90
20654;DHT22;21083;50.898;4.902;2024-01-30T11:55:14;11.90;99.90
20654;DHT22;21083;50.898;4.902;2024-01-30T11:57:41;11.80;99.90
20654;DHT22;21083;50.898;4.902;2024-01-30T12:00:15;11.80;99.90
20654;DHT22;21083;50.898;4.902;2024-01-30T12:02:42;11.90;99.90
20654;DHT22;21083;50.898;4.902;2024-01-30T12:05:11;11.90;99.90
20654;DHT22;21083;50.898;4.902;2024-01-30T12:07:39;11.80;99.90
20654;DHT22;21083;50.898;4.902;2024-01-30T12:10:09;11.70;99.90
20654;DHT22;21083;50.898;4.902;2024-01-30T12:12:36;11.60;99.90
20654;DHT22;21083;50.898;4.902;2024-01-30T12:15:04;11.70;99.90
20654;DHT22;21083;50.898;4.902;2024-01-30T12:17:33;11.80;99.90
20654;DHT22;21083;50.898;4.902;2024-01-30T12:20:04;11.80;99.90
20654;DHT22;21083;50.898;4.902;2024-01-30T12:22:35;11.80;99.90
20654;DHT22;21083;50.898;4.902;2024-01-30T12:25:05;11.90;99.90
20654;DHT22;21083;50.898;4.902;2024-01-30T12:27:34;11.90;99.90
20654;DHT22;21083;50.898;4.902;2024-01-30T12:30:02;11.80;99.90
20654;DHT22;21083;50.898;4.902;2024-01-30T12:32:31;11.80;99.90
20654;DHT22;21083;50.898;4.902;2024-01-30T12:34:59;11.80;99.90
20654;DHT22;21083;50.898;4.902;2024-01-30T12:37:26;11.90;99.90
20654;DHT22;21083;50.898;4.902;2024-01-30T12:39:58;11.80;99.90
20654;DHT22;21083;50.898;4.902;2024-01-30T12:42:27;11.60;99.90
20654;DHT22;21083;50.898;4.902;2024-01-30T12:44:54;11.60;99.90
20654;DHT22;21083;50.898;4.902;2024-01-30T12:47:23;11.50;99.90
20654;DHT22;21083;50.898;4.902;2024-01-30T12:49:50;11.50;99.90
20654;DHT22;21083;50.898;4.902;2024-01-30T12:52:20;11.60;99.90
20654;DHT22;21083;50.898;4.902;2024-01-30T12:54:47;11.60;99.90
20654;DHT22;21083;50.898;4.902;2024-01-30T12:57:14;11.70;99.90
20654;DHT22;21083;50.898;4.902;2024-01-30T12:59:43;11.60;99.90
20654;DHT22;21083;50.898;4.902;2024-01-30T13:02:12;11.60;99.90
20654;DHT22;21083;50.898;4.902;2024-01-30T13:04:40;11.60;99.90
20654;DHT22;21083;50.898;4.902;2024-01-30T13:07:07;12.30;99.90
20654;DHT22;21083;50.898;4.902;2024-01-30T13:09:34;12.40;99.90
20654;DHT22;21083;50.898;4.902;2024-01-30T13:12:01;12.20;99.90
20654;DHT22;21083;50.898;4.902;2024-01-30T13:14:28;12.10;99.90
20654;DHT22;21083;50.898;4.902;2024-01-30T13:16:57;12.20;99.90
20654;DHT22;21083;50.898;4.902;2024-01-30T13:19:24;12.90;99.90
20654;DHT22;21083;50.898;4.902;2024-01-30T13:21:51;13.00;99.90
20654;DHT22;21083;50.898;4.902;2024-01-30T13:24:18;13.60;99.90
20654;DHT22;21083;50.898;4.902;2024-01-30T13:26:47;14.00;99.90
20654;DHT22;21083;50.898;4.902;2024-01-30T13:29:14;14.80;99.90
20654;DHT22;21083;50.898;4.902;2024-01-30T13:31:41;14.30;99.90
20654;DHT22;21083;50.898;4.902;2024-01-30T13:34:11;14.10;99.90
20654;DHT22;21083;50.898;4.902;2024-01-30T13:36:39;14.40;99.90
20654;DHT22;21083;50.898;4.902;2024-01-30T13:39:06;15.10;99.90
20654;DHT22;21083;50.898;4.902;2024-01-30T13:41:36;15.50;99.90
20654;DHT22;21083;50.898;4.902;2024-01-30T13:44:05;15.80;99.90
20654;DHT22;21083;50.898;4.902;2024-01-30T13:46:32;16.00;99.90
20654;DHT22;21083;50.898;4.902;2024-01-30T13:48:59;16.40;99.90
20654;DHT22;21083;50.898;4.902;2024-01-30T13:51:27;15.20;99.90
20654;DHT22;21083;50.898;4.902;2024-01-30T13:53:54;14.20;99.90
20654;DHT22;21083;50.898;4.902;2024-01-30T13:56:21;13.60;99.90
20654;DHT22;21083;50.898;4.902;2024-01-30T13:58:49;13.30;99.90
20654;DHT22;21083;50.898;4.902;2024-01-30T14:01:16;13.20;99.90
20654;DHT22;21083;50.898;4.902;2024-01-30T14:03:43;13.40;99.90
20654;DHT22;21083;50.898;4.902;2024-01-30T14:06:11;14.60;99.90
20654;DHT22;21083;50.898;4.902;2024-01-30T14:08:39;15.00;99.90
20654;DHT22;21083;50.898;4.902;2024-01-30T14:11:06;15.40;99.90
20654;DHT22;21083;50.898;4.902;2024-01-30T14:13:34;15.30;99.90
20654;DHT22;21083;50.898;4.902;2024-01-30T14:16:01;15.20;99.90
20654;DHT22;21083;50.898;4.902;2024-01-30T14:18:28;14.70;99.90
20654;DHT22;21083;50.898;4.902;2024-01-30T14:20:55;14.40;99.90
20654;DHT22;21083;50.898;4.902;2024-01-30T14:23:22;13.70;99.90
20654;DHT22;21083;50.898;4.902;2024-01-30T14:25:51;13.30;99.90
20654;DHT22;21083;50.898;4.902;2024-01-30T14:28:18;13.00;99.90
20654;DHT22;21083;50.898;4.902;2024-01-30T14:30:45;12.70;99.90
20654;DHT22;21083;50.898;4.902;2024-01-30T14:33:12;12.20;99.90
20654;DHT22;21083;50.898;4.902;2024-01-30T14:35:39;12.10;99.90
20654;DHT22;21083;50.898;4.902;2024-01-30T14:38:07;12.10;99.90
20654;DHT22;21083;50.898;4.902;2024-01-30T14:40:35;12.00;99.90
20654;DHT22;21083;50.898;4.902;2024-01-30T14:43:04;11.80;99.90
20654;DHT22;21083;50.898;4.902;2024-01-30T14:45:31;11.70;99.90
20654;DHT22;21083;50.898;4.902;2024-01-30T14:47:58;11.50;99.90
20654;DHT22;21083;50.898;4.902;2024-01-30T14:50:26;11.50;99.90
20654;DHT22;21083;50.898;4.902;2024-01-30T14:52:54;11.50;99.90
20654;DHT22;21083;50.898;4.902;2024-01-30T14:55:21;11.60;99.90
20654;DHT22;21083;50.898;4.902;2024-01-30T14:57:48;11.50;99.90
20654;DHT22;21083;50.898;4.902;2024-01-30T15:00:17;11.40;99.90
20654;DHT22;21083;50.898;4.902;2024-01-30T15:02:44;11.50;99.90
20654;DHT22;21083;50.898;4.902;2024-01-30T15:05:13;11.40;99.90
20654;DHT22;21083;50.898;4.902;2024-01-30T15:07:40;11.40;99.90
20654;DHT22;21083;50.898;4.902;2024-01-30T15:10:08;11.40;99.90
20654;DHT22;21083;50.898;4.902;2024-01-30T15:12:35;11.40;99.90
20654;DHT22;21083;50.898;4.902;2024-01-30T15:15:03;11.20;99.90
20654;DHT22;21083;50.898;4.902;2024-01-30T15:17:31;11.20;99.90
20654;DHT22;21083;50.898;4.902;2024-01-30T15:20:00;11.10;99.90
20654;DHT22;21083;50.898;4.902;2024-01-30T15:22:27;11.10;99.90
20654;DHT22;21083;50.898;4.902;2024-01-30T15:24:54;10.90;99.90
20654;DHT22;21083;50.898;4.902;2024-01-30T15:27:21;10.90;99.90
20654;DHT22;21083;50.898;4.902;2024-01-30T15:29:48;11.00;99.90
20654;DHT22;21083;50.898;4.902;2024-01-30T15:32:15;10.90;99.90